sensor_id;sensor_type;location;lat;lon;timestamp;P1;durP1;ratioP1;P2;durP2;ratioP2
28772;SDS011;15925;51.222;5.678;2023-07-13T00:00:27;2.65;;;0.43;;
28772;SDS011;15925;51.222;5.678;2023-07-13T00:02:54;6.03;;;0.55;;
28772;SDS011;15925;51.222;5.678;2023-07-13T00:05:20;2.53;;;0.73;;
28772;SDS011;15925;51.222;5.678;2023-07-13T00:07:47;3.08;;;0.77;;
28772;SDS011;15925;51.222;5.678;2023-07-13T00:10:13;5.68;;;0.57;;
28772;SDS011;15925;51.222;5.678;2023-07-13T00:12:40;3.08;;;0.50;;
28772;SDS011;15925;51.222;5.678;2023-07-13T00:15:16;1.70;;;0.30;;
28772;SDS011;15925;51.222;5.678;2023-07-13T00:17:54;1.27;;;0.43;;
28772;SDS011;15925;51.222;5.678;2023-07-13T00:20:21;1.30;;;0.45;;
28772;SDS011;15925;51.222;5.678;2023-07-13T00:22:50;4.40;;;0.40;;
28772;SDS011;15925;51.222;5.678;2023-07-13T00:25:22;4.25;;;0.60;;
28772;SDS011;15925;51.222;5.678;2023-07-13T00:27:49;2.28;;;0.80;;
28772;SDS011;15925;51.222;5.678;2023-07-13T00:32:42;1.50;;;0.55;;
28772;SDS011;15925;51.222;5.678;2023-07-13T00:35:08;2.63;;;0.43;;
28772;SDS011;15925;51.222;5.678;2023-07-13T00:37:34;4.47;;;1.02;;
28772;SDS011;15925;51.222;5.678;2023-07-13T00:40:01;4.65;;;1.20;;
28772;SDS011;15925;51.222;5.678;2023-07-13T00:42:29;1.25;;;0.50;;
28772;SDS011;15925;51.222;5.678;2023-07-13T00:46:08;6.00;;;0.53;;
28772;SDS011;15925;51.222;5.678;2023-07-13T00:47:49;5.07;;;0.40;;
28772;SDS011;15925;51.222;5.678;2023-07-13T00:50:16;3.10;;;0.60;;
28772;SDS011;15925;51.222;5.678;2023-07-13T00:52:45;15.43;;;0.68;;
28772;SDS011;15925;51.222;5.678;2023-07-13T00:55:18;2.10;;;0.65;;
28772;SDS011;15925;51.222;5.678;2023-07-13T00:57:47;4.38;;;0.85;;
28772;SDS011;15925;51.222;5.678;2023-07-13T01:00:14;3.90;;;0.60;;
28772;SDS011;15925;51.222;5.678;2023-07-13T01:02:42;0.32;;;0.17;;
28772;SDS011;15925;51.222;5.678;2023-07-13T01:05:10;1.65;;;0.57;;
28772;SDS011;15925;51.222;5.678;2023-07-13T01:07:39;3.03;;;0.70;;
28772;SDS011;15925;51.222;5.678;2023-07-13T01:10:06;4.13;;;0.28;;
28772;SDS011;15925;51.222;5.678;2023-07-13T01:12:33;2.58;;;0.85;;
28772;SDS011;15925;51.222;5.678;2023-07-13T01:15:00;2.35;;;0.50;;
28772;SDS011;15925;51.222;5.678;2023-07-13T01:17:27;0.20;;;0.20;;
28772;SDS011;15925;51.222;5.678;2023-07-13T01:19:54;10.10;;;0.52;;
28772;SDS011;15925;51.222;5.678;2023-07-13T01:22:22;4.13;;;0.52;;
28772;SDS011;15925;51.222;5.678;2023-07-13T01:24:51;3.50;;;1.05;;
28772;SDS011;15925;51.222;5.678;2023-07-13T01:27:19;7.68;;;0.65;;
28772;SDS011;15925;51.222;5.678;2023-07-13T01:29:48;2.17;;;0.50;;
28772;SDS011;15925;51.222;5.678;2023-07-13T01:32:16;1.13;;;0.65;;
28772;SDS011;15925;51.222;5.678;2023-07-13T01:34:48;5.22;;;0.40;;
28772;SDS011;15925;51.222;5.678;2023-07-13T01:37:16;1.77;;;0.63;;
28772;SDS011;15925;51.222;5.678;2023-07-13T01:39:42;7.43;;;0.93;;
28772;SDS011;15925;51.222;5.678;2023-07-13T01:42:08;6.00;;;1.07;;
28772;SDS011;15925;51.222;5.678;2023-07-13T01:44:33;0.75;;;0.38;;
28772;SDS011;15925;51.222;5.678;2023-07-13T01:47:00;5.28;;;0.85;;
28772;SDS011;15925;51.222;5.678;2023-07-13T01:49:26;1.85;;;0.60;;
28772;SDS011;15925;51.222;5.678;2023-07-13T01:51:52;8.10;;;1.25;;
28772;SDS011;15925;51.222;5.678;2023-07-13T01:54:18;1.92;;;0.70;;
28772;SDS011;15925;51.222;5.678;2023-07-13T01:56:43;2.83;;;0.50;;
28772;SDS011;15925;51.222;5.678;2023-07-13T01:59:10;2.22;;;0.40;;
28772;SDS011;15925;51.222;5.678;2023-07-13T02:01:36;4.53;;;0.47;;
28772;SDS011;15925;51.222;5.678;2023-07-13T02:04:02;2.93;;;1.03;;
28772;SDS011;15925;51.222;5.678;2023-07-13T02:06:32;2.72;;;1.05;;
28772;SDS011;15925;51.222;5.678;2023-07-13T02:08:58;1.17;;;0.43;;
28772;SDS011;15925;51.222;5.678;2023-07-13T02:11:24;1.83;;;0.60;;
28772;SDS011;15925;51.222;5.678;2023-07-13T02:13:50;5.25;;;0.60;;
28772;SDS011;15925;51.222;5.678;2023-07-13T02:16:17;1.55;;;0.73;;
28772;SDS011;15925;51.222;5.678;2023-07-13T02:18:42;0.57;;;0.50;;
28772;SDS011;15925;51.222;5.678;2023-07-13T02:21:08;0.87;;;0.63;;
28772;SDS011;15925;51.222;5.678;2023-07-13T02:23:34;8.80;;;1.23;;
28772;SDS011;15925;51.222;5.678;2023-07-13T02:26:01;0.63;;;0.55;;
28772;SDS011;15925;51.222;5.678;2023-07-13T02:28:28;10.43;;;1.00;;
28772;SDS011;15925;51.222;5.678;2023-07-13T02:30:54;5.90;;;0.60;;
28772;SDS011;15925;51.222;5.678;2023-07-13T02:33:20;7.38;;;1.02;;
28772;SDS011;15925;51.222;5.678;2023-07-13T02:35:47;3.22;;;0.55;;
28772;SDS011;15925;51.222;5.678;2023-07-13T02:38:13;3.80;;;1.15;;
28772;SDS011;15925;51.222;5.678;2023-07-13T02:40:39;1.50;;;0.70;;
28772;SDS011;15925;51.222;5.678;2023-07-13T02:43:04;2.43;;;0.73;;
28772;SDS011;15925;51.222;5.678;2023-07-13T02:45:30;10.95;;;1.15;;
28772;SDS011;15925;51.222;5.678;2023-07-13T02:47:56;4.53;;;1.03;;
28772;SDS011;15925;51.222;5.678;2023-07-13T02:50:22;7.83;;;0.77;;
28772;SDS011;15925;51.222;5.678;2023-07-13T02:52:48;5.13;;;0.50;;
28772;SDS011;15925;51.222;5.678;2023-07-13T02:55:14;2.67;;;0.60;;
28772;SDS011;15925;51.222;5.678;2023-07-13T02:57:40;10.35;;;0.80;;
28772;SDS011;15925;51.222;5.678;2023-07-13T03:00:06;5.72;;;0.60;;
28772;SDS011;15925;51.222;5.678;2023-07-13T03:02:33;0.88;;;0.52;;
28772;SDS011;15925;51.222;5.678;2023-07-13T03:05:01;4.50;;;1.00;;
28772;SDS011;15925;51.222;5.678;2023-07-13T03:07:27;2.38;;;0.50;;
28772;SDS011;15925;51.222;5.678;2023-07-13T03:09:54;7.50;;;0.60;;
28772;SDS011;15925;51.222;5.678;2023-07-13T03:12:23;3.40;;;0.40;;
28772;SDS011;15925;51.222;5.678;2023-07-13T03:14:50;4.80;;;0.45;;
28772;SDS011;15925;51.222;5.678;2023-07-13T03:17:16;3.10;;;0.95;;
28772;SDS011;15925;51.222;5.678;2023-07-13T03:19:43;1.60;;;0.57;;
28772;SDS011;15925;51.222;5.678;2023-07-13T03:22:10;1.45;;;0.70;;
28772;SDS011;15925;51.222;5.678;2023-07-13T03:24:37;13.30;;;0.77;;
28772;SDS011;15925;51.222;5.678;2023-07-13T03:27:04;7.70;;;0.98;;
28772;SDS011;15925;51.222;5.678;2023-07-13T03:29:33;1.58;;;0.57;;
28772;SDS011;15925;51.222;5.678;2023-07-13T03:31:59;3.33;;;1.20;;
28772;SDS011;15925;51.222;5.678;2023-07-13T03:34:25;16.43;;;0.70;;
28772;SDS011;15925;51.222;5.678;2023-07-13T03:36:53;0.98;;;0.35;;
28772;SDS011;15925;51.222;5.678;2023-07-13T03:39:20;1.40;;;0.65;;
28772;SDS011;15925;51.222;5.678;2023-07-13T03:41:49;4.28;;;0.65;;
28772;SDS011;15925;51.222;5.678;2023-07-13T03:44:15;1.95;;;0.63;;
28772;SDS011;15925;51.222;5.678;2023-07-13T03:46:43;1.83;;;0.60;;
28772;SDS011;15925;51.222;5.678;2023-07-13T03:49:09;3.75;;;1.00;;
28772;SDS011;15925;51.222;5.678;2023-07-13T03:51:35;5.43;;;1.05;;
28772;SDS011;15925;51.222;5.678;2023-07-13T03:54:01;1.60;;;0.60;;
28772;SDS011;15925;51.222;5.678;2023-07-13T04:01:23;8.88;;;1.55;;
28772;SDS011;15925;51.222;5.678;2023-07-13T04:03:50;3.40;;;1.10;;
28772;SDS011;15925;51.222;5.678;2023-07-13T04:06:22;1.38;;;0.75;;
28772;SDS011;15925;51.222;5.678;2023-07-13T04:08:51;2.63;;;0.75;;
28772;SDS011;15925;51.222;5.678;2023-07-13T04:11:19;3.03;;;1.02;;
28772;SDS011;15925;51.222;5.678;2023-07-13T04:13:46;3.28;;;1.13;;
28772;SDS011;15925;51.222;5.678;2023-07-13T04:18:38;5.32;;;0.95;;
28772;SDS011;15925;51.222;5.678;2023-07-13T04:21:04;4.60;;;1.03;;
28772;SDS011;15925;51.222;5.678;2023-07-13T04:23:30;1.67;;;0.63;;
28772;SDS011;15925;51.222;5.678;2023-07-13T04:25:56;11.90;;;1.30;;
28772;SDS011;15925;51.222;5.678;2023-07-13T04:28:23;5.20;;;1.33;;
28772;SDS011;15925;51.222;5.678;2023-07-13T04:30:50;11.95;;;1.70;;
28772;SDS011;15925;51.222;5.678;2023-07-13T04:33:16;1.38;;;0.70;;
28772;SDS011;15925;51.222;5.678;2023-07-13T04:35:43;8.63;;;0.97;;
28772;SDS011;15925;51.222;5.678;2023-07-13T04:38:09;1.67;;;0.75;;
28772;SDS011;15925;51.222;5.678;2023-07-13T04:40:36;14.70;;;1.65;;
28772;SDS011;15925;51.222;5.678;2023-07-13T04:43:02;10.70;;;1.00;;
28772;SDS011;15925;51.222;5.678;2023-07-13T04:45:28;5.22;;;0.38;;
28772;SDS011;15925;51.222;5.678;2023-07-13T04:47:54;18.30;;;1.38;;
28772;SDS011;15925;51.222;5.678;2023-07-13T04:50:19;4.70;;;0.90;;
28772;SDS011;15925;51.222;5.678;2023-07-13T04:52:51;6.00;;;0.95;;
28772;SDS011;15925;51.222;5.678;2023-07-13T04:55:17;0.90;;;0.70;;
28772;SDS011;15925;51.222;5.678;2023-07-13T04:57:43;14.52;;;1.10;;
28772;SDS011;15925;51.222;5.678;2023-07-13T05:00:09;1.10;;;0.50;;
28772;SDS011;15925;51.222;5.678;2023-07-13T05:02:37;8.30;;;2.08;;
28772;SDS011;15925;51.222;5.678;2023-07-13T05:05:04;5.63;;;1.05;;
28772;SDS011;15925;51.222;5.678;2023-07-13T05:07:30;6.63;;;1.38;;
28772;SDS011;15925;51.222;5.678;2023-07-13T05:09:58;5.85;;;1.50;;
28772;SDS011;15925;51.222;5.678;2023-07-13T05:12:25;3.30;;;0.93;;
28772;SDS011;15925;51.222;5.678;2023-07-13T05:17:17;1.77;;;0.95;;
28772;SDS011;15925;51.222;5.678;2023-07-13T05:19:43;4.50;;;1.30;;
28772;SDS011;15925;51.222;5.678;2023-07-13T05:22:09;2.65;;;1.40;;
28772;SDS011;15925;51.222;5.678;2023-07-13T05:24:35;2.28;;;0.85;;
28772;SDS011;15925;51.222;5.678;2023-07-13T05:27:01;7.20;;;1.60;;
28772;SDS011;15925;51.222;5.678;2023-07-13T05:29:27;7.15;;;1.30;;
28772;SDS011;15925;51.222;5.678;2023-07-13T05:31:52;2.30;;;1.42;;
28772;SDS011;15925;51.222;5.678;2023-07-13T05:34:18;10.67;;;1.30;;
28772;SDS011;15925;51.222;5.678;2023-07-13T05:36:44;2.90;;;1.37;;
28772;SDS011;15925;51.222;5.678;2023-07-13T05:39:10;2.95;;;0.82;;
28772;SDS011;15925;51.222;5.678;2023-07-13T05:41:36;7.55;;;1.80;;
28772;SDS011;15925;51.222;5.678;2023-07-13T05:44:02;10.82;;;2.78;;
28772;SDS011;15925;51.222;5.678;2023-07-13T05:46:28;5.15;;;1.40;;
28772;SDS011;15925;51.222;5.678;2023-07-13T05:48:54;4.57;;;1.23;;
28772;SDS011;15925;51.222;5.678;2023-07-13T05:51:20;4.13;;;1.20;;
28772;SDS011;15925;51.222;5.678;2023-07-13T05:53:46;1.65;;;1.08;;
28772;SDS011;15925;51.222;5.678;2023-07-13T05:56:11;2.23;;;1.07;;
28772;SDS011;15925;51.222;5.678;2023-07-13T05:58:37;3.43;;;1.47;;
28772;SDS011;15925;51.222;5.678;2023-07-13T06:01:12;4.18;;;1.33;;
28772;SDS011;15925;51.222;5.678;2023-07-13T06:03:40;7.70;;;1.70;;
28772;SDS011;15925;51.222;5.678;2023-07-13T06:06:06;10.48;;;1.33;;
28772;SDS011;15925;51.222;5.678;2023-07-13T06:08:33;14.70;;;1.90;;
28772;SDS011;15925;51.222;5.678;2023-07-13T06:11:33;7.43;;;1.73;;
28772;SDS011;15925;51.222;5.678;2023-07-13T06:13:55;8.98;;;1.83;;
28772;SDS011;15925;51.222;5.678;2023-07-13T06:16:21;14.48;;;1.15;;
28772;SDS011;15925;51.222;5.678;2023-07-13T06:18:47;1.90;;;1.10;;
28772;SDS011;15925;51.222;5.678;2023-07-13T06:21:14;4.10;;;0.90;;
28772;SDS011;15925;51.222;5.678;2023-07-13T06:23:42;11.60;;;2.05;;
28772;SDS011;15925;51.222;5.678;2023-07-13T06:26:09;9.80;;;1.80;;
28772;SDS011;15925;51.222;5.678;2023-07-13T06:28:35;11.18;;;2.33;;
28772;SDS011;15925;51.222;5.678;2023-07-13T06:31:04;8.15;;;1.63;;
28772;SDS011;15925;51.222;5.678;2023-07-13T06:33:31;10.13;;;1.40;;
28772;SDS011;15925;51.222;5.678;2023-07-13T06:35:58;9.60;;;2.13;;
28772;SDS011;15925;51.222;5.678;2023-07-13T06:38:23;13.17;;;2.57;;
28772;SDS011;15925;51.222;5.678;2023-07-13T06:40:49;18.70;;;2.70;;
28772;SDS011;15925;51.222;5.678;2023-07-13T06:43:15;14.68;;;1.98;;
28772;SDS011;15925;51.222;5.678;2023-07-13T06:45:43;12.00;;;1.70;;
28772;SDS011;15925;51.222;5.678;2023-07-13T06:48:12;9.57;;;2.15;;
28772;SDS011;15925;51.222;5.678;2023-07-13T06:50:38;8.15;;;1.98;;
28772;SDS011;15925;51.222;5.678;2023-07-13T06:53:04;23.77;;;3.10;;
28772;SDS011;15925;51.222;5.678;2023-07-13T06:55:30;12.20;;;1.70;;
28772;SDS011;15925;51.222;5.678;2023-07-13T06:57:57;5.43;;;1.58;;
28772;SDS011;15925;51.222;5.678;2023-07-13T07:00:23;7.60;;;1.48;;
28772;SDS011;15925;51.222;5.678;2023-07-13T07:02:49;11.90;;;1.33;;
28772;SDS011;15925;51.222;5.678;2023-07-13T07:05:15;11.90;;;2.35;;
28772;SDS011;15925;51.222;5.678;2023-07-13T07:07:40;3.97;;;1.17;;
28772;SDS011;15925;51.222;5.678;2023-07-13T07:10:06;5.40;;;1.57;;
28772;SDS011;15925;51.222;5.678;2023-07-13T07:12:33;9.00;;;1.50;;
28772;SDS011;15925;51.222;5.678;2023-07-13T07:14:59;7.72;;;1.98;;
28772;SDS011;15925;51.222;5.678;2023-07-13T07:17:24;11.47;;;2.00;;
28772;SDS011;15925;51.222;5.678;2023-07-13T07:19:51;5.10;;;1.77;;
28772;SDS011;15925;51.222;5.678;2023-07-13T07:22:19;7.30;;;2.08;;
28772;SDS011;15925;51.222;5.678;2023-07-13T07:24:46;4.38;;;1.73;;
28772;SDS011;15925;51.222;5.678;2023-07-13T07:27:12;16.63;;;1.87;;
28772;SDS011;15925;51.222;5.678;2023-07-13T07:29:37;3.23;;;2.00;;
28772;SDS011;15925;51.222;5.678;2023-07-13T07:32:03;9.53;;;1.83;;
28772;SDS011;15925;51.222;5.678;2023-07-13T07:34:30;7.43;;;1.25;;
28772;SDS011;15925;51.222;5.678;2023-07-13T07:36:58;26.73;;;1.85;;
28772;SDS011;15925;51.222;5.678;2023-07-13T07:39:26;20.80;;;2.03;;
28772;SDS011;15925;51.222;5.678;2023-07-13T07:41:52;5.72;;;2.03;;
28772;SDS011;15925;51.222;5.678;2023-07-13T07:44:18;2.55;;;1.30;;
28772;SDS011;15925;51.222;5.678;2023-07-13T07:46:44;4.72;;;1.88;;
28772;SDS011;15925;51.222;5.678;2023-07-13T07:49:10;6.03;;;1.50;;
28772;SDS011;15925;51.222;5.678;2023-07-13T07:51:36;8.93;;;1.87;;
28772;SDS011;15925;51.222;5.678;2023-07-13T07:54:03;4.45;;;1.80;;
28772;SDS011;15925;51.222;5.678;2023-07-13T07:56:29;6.13;;;2.05;;
28772;SDS011;15925;51.222;5.678;2023-07-13T07:58:55;18.37;;;1.70;;
28772;SDS011;15925;51.222;5.678;2023-07-13T08:01:21;3.83;;;1.88;;
28772;SDS011;15925;51.222;5.678;2023-07-13T08:03:47;14.45;;;2.15;;
28772;SDS011;15925;51.222;5.678;2023-07-13T08:06:13;14.40;;;1.50;;
28772;SDS011;15925;51.222;5.678;2023-07-13T08:08:39;7.30;;;1.50;;
28772;SDS011;15925;51.222;5.678;2023-07-13T08:11:05;10.40;;;2.05;;
28772;SDS011;15925;51.222;5.678;2023-07-13T08:13:33;2.17;;;1.10;;
28772;SDS011;15925;51.222;5.678;2023-07-13T08:15:59;7.93;;;1.23;;
28772;SDS011;15925;51.222;5.678;2023-07-13T08:18:25;13.63;;;1.37;;
28772;SDS011;15925;51.222;5.678;2023-07-13T08:20:51;8.45;;;1.50;;
28772;SDS011;15925;51.222;5.678;2023-07-13T08:23:17;13.80;;;1.55;;
28772;SDS011;15925;51.222;5.678;2023-07-13T08:25:42;17.17;;;1.77;;
28772;SDS011;15925;51.222;5.678;2023-07-13T08:28:15;10.35;;;1.88;;
28772;SDS011;15925;51.222;5.678;2023-07-13T08:30:41;7.72;;;1.73;;
28772;SDS011;15925;51.222;5.678;2023-07-13T08:33:06;7.10;;;2.10;;
28772;SDS011;15925;51.222;5.678;2023-07-13T08:35:32;5.97;;;1.57;;
28772;SDS011;15925;51.222;5.678;2023-07-13T08:37:58;9.70;;;1.73;;
28772;SDS011;15925;51.222;5.678;2023-07-13T08:40:25;8.07;;;1.80;;
28772;SDS011;15925;51.222;5.678;2023-07-13T08:42:57;7.18;;;1.73;;
28772;SDS011;15925;51.222;5.678;2023-07-13T08:48:09;10.88;;;2.22;;
28772;SDS011;15925;51.222;5.678;2023-07-13T08:50:42;9.85;;;1.98;;
28772;SDS011;15925;51.222;5.678;2023-07-13T08:53:19;3.63;;;1.00;;
28772;SDS011;15925;51.222;5.678;2023-07-13T08:55:48;7.97;;;1.55;;
28772;SDS011;15925;51.222;5.678;2023-07-13T08:58:21;9.13;;;1.95;;
28772;SDS011;15925;51.222;5.678;2023-07-13T09:03:28;3.53;;;1.15;;
28772;SDS011;15925;51.222;5.678;2023-07-13T09:06:01;20.45;;;1.83;;
28772;SDS011;15925;51.222;5.678;2023-07-13T09:11:23;3.55;;;1.48;;
28772;SDS011;15925;51.222;5.678;2023-07-13T09:17:10;4.45;;;1.38;;
28772;SDS011;15925;51.222;5.678;2023-07-13T09:19:52;3.67;;;1.27;;
28772;SDS011;15925;51.222;5.678;2023-07-13T09:22:40;6.55;;;0.80;;
28772;SDS011;15925;51.222;5.678;2023-07-13T09:28:00;10.13;;;2.03;;
28772;SDS011;15925;51.222;5.678;2023-07-13T09:33:14;4.75;;;1.20;;
28772;SDS011;15925;51.222;5.678;2023-07-13T09:35:40;4.13;;;0.95;;
28772;SDS011;15925;51.222;5.678;2023-07-13T09:38:11;9.60;;;1.70;;
28772;SDS011;15925;51.222;5.678;2023-07-13T09:40:59;8.27;;;1.23;;
28772;SDS011;15925;51.222;5.678;2023-07-13T09:48:57;7.78;;;1.17;;
28772;SDS011;15925;51.222;5.678;2023-07-13T09:51:23;4.23;;;1.70;;
28772;SDS011;15925;51.222;5.678;2023-07-13T09:53:49;20.33;;;1.57;;
28772;SDS011;15925;51.222;5.678;2023-07-13T09:56:26;3.97;;;1.15;;
28772;SDS011;15925;51.222;5.678;2023-07-13T09:58:52;5.32;;;1.65;;
28772;SDS011;15925;51.222;5.678;2023-07-13T10:01:52;19.25;;;3.08;;
28772;SDS011;15925;51.222;5.678;2023-07-13T10:04:13;6.70;;;1.13;;
28772;SDS011;15925;51.222;5.678;2023-07-13T10:06:44;5.63;;;1.00;;
28772;SDS011;15925;51.222;5.678;2023-07-13T10:09:15;5.63;;;1.85;;
28772;SDS011;15925;51.222;5.678;2023-07-13T10:11:42;10.43;;;1.23;;
28772;SDS011;15925;51.222;5.678;2023-07-13T10:14:14;7.25;;;1.25;;
28772;SDS011;15925;51.222;5.678;2023-07-13T10:16:42;7.47;;;1.08;;
28772;SDS011;15925;51.222;5.678;2023-07-13T10:21:54;2.75;;;0.93;;
28772;SDS011;15925;51.222;5.678;2023-07-13T10:24:23;2.05;;;0.85;;
28772;SDS011;15925;51.222;5.678;2023-07-13T10:29:39;9.73;;;1.35;;
28772;SDS011;15925;51.222;5.678;2023-07-13T10:32:13;12.07;;;1.30;;
28772;SDS011;15925;51.222;5.678;2023-07-13T10:34:43;3.50;;;1.25;;
28772;SDS011;15925;51.222;5.678;2023-07-13T10:37:22;6.93;;;1.02;;
28772;SDS011;15925;51.222;5.678;2023-07-13T10:39:55;3.35;;;1.35;;
28772;SDS011;15925;51.222;5.678;2023-07-13T10:42:39;11.48;;;1.23;;
28772;SDS011;15925;51.222;5.678;2023-07-13T10:45:14;4.38;;;0.98;;
28772;SDS011;15925;51.222;5.678;2023-07-13T10:47:42;3.88;;;1.10;;
28772;SDS011;15925;51.222;5.678;2023-07-13T10:50:13;1.30;;;0.50;;
28772;SDS011;15925;51.222;5.678;2023-07-13T10:52:45;4.30;;;0.93;;
28772;SDS011;15925;51.222;5.678;2023-07-13T10:58:01;0.98;;;0.52;;
28772;SDS011;15925;51.222;5.678;2023-07-13T11:01:03;5.57;;;1.27;;
28772;SDS011;15925;51.222;5.678;2023-07-13T11:03:29;8.43;;;1.35;;
28772;SDS011;15925;51.222;5.678;2023-07-13T11:21:29;6.80;;;1.17;;
28772;SDS011;15925;51.222;5.678;2023-07-13T11:24:14;7.72;;;0.98;;
28772;SDS011;15925;51.222;5.678;2023-07-13T11:29:09;5.90;;;1.07;;
28772;SDS011;15925;51.222;5.678;2023-07-13T11:31:41;3.30;;;1.27;;
28772;SDS011;15925;51.222;5.678;2023-07-13T11:34:15;11.57;;;1.42;;
28772;SDS011;15925;51.222;5.678;2023-07-13T11:36:43;7.53;;;0.85;;
28772;SDS011;15925;51.222;5.678;2023-07-13T11:39:16;2.63;;;1.08;;
28772;SDS011;15925;51.222;5.678;2023-07-13T11:41:45;2.38;;;1.05;;
28772;SDS011;15925;51.222;5.678;2023-07-13T11:44:17;4.47;;;0.82;;
28772;SDS011;15925;51.222;5.678;2023-07-13T11:46:46;7.07;;;1.00;;
28772;SDS011;15925;51.222;5.678;2023-07-13T11:49:26;2.17;;;0.80;;
28772;SDS011;15925;51.222;5.678;2023-07-13T11:51:55;7.22;;;0.90;;
28772;SDS011;15925;51.222;5.678;2023-07-13T11:54:32;1.48;;;0.88;;
28772;SDS011;15925;51.222;5.678;2023-07-13T11:59:54;14.07;;;1.17;;
28772;SDS011;15925;51.222;5.678;2023-07-13T12:02:26;5.57;;;1.35;;
28772;SDS011;15925;51.222;5.678;2023-07-13T12:04:55;2.55;;;0.70;;
28772;SDS011;15925;51.222;5.678;2023-07-13T12:09:47;1.08;;;0.80;;
28772;SDS011;15925;51.222;5.678;2023-07-13T12:12:20;5.85;;;0.98;;
28772;SDS011;15925;51.222;5.678;2023-07-13T12:14:51;2.13;;;0.88;;
28772;SDS011;15925;51.222;5.678;2023-07-13T12:17:24;1.33;;;0.68;;
28772;SDS011;15925;51.222;5.678;2023-07-13T12:19:51;6.63;;;0.68;;
28772;SDS011;15925;51.222;5.678;2023-07-13T12:22:18;1.67;;;0.85;;
28772;SDS011;15925;51.222;5.678;2023-07-13T12:24:46;4.97;;;1.08;;
28772;SDS011;15925;51.222;5.678;2023-07-13T12:27:23;2.13;;;0.93;;
28772;SDS011;15925;51.222;5.678;2023-07-13T12:29:52;0.32;;;0.32;;
28772;SDS011;15925;51.222;5.678;2023-07-13T12:32:24;4.43;;;0.75;;
28772;SDS011;15925;51.222;5.678;2023-07-13T12:34:54;2.55;;;0.95;;
28772;SDS011;15925;51.222;5.678;2023-07-13T12:37:21;2.65;;;0.73;;
28772;SDS011;15925;51.222;5.678;2023-07-13T12:39:48;3.67;;;1.13;;
28772;SDS011;15925;51.222;5.678;2023-07-13T12:42:20;2.75;;;1.05;;
28772;SDS011;15925;51.222;5.678;2023-07-13T12:44:52;5.75;;;0.85;;
28772;SDS011;15925;51.222;5.678;2023-07-13T12:47:19;7.03;;;0.98;;
28772;SDS011;15925;51.222;5.678;2023-07-13T12:49:53;13.18;;;1.58;;
28772;SDS011;15925;51.222;5.678;2023-07-13T12:52:22;2.05;;;0.52;;
28772;SDS011;15925;51.222;5.678;2023-07-13T12:54:56;4.10;;;1.13;;
28772;SDS011;15925;51.222;5.678;2023-07-13T12:57:24;6.07;;;1.10;;
28772;SDS011;15925;51.222;5.678;2023-07-13T12:59:52;7.07;;;1.02;;
28772;SDS011;15925;51.222;5.678;2023-07-13T13:02:34;0.73;;;0.65;;
28772;SDS011;15925;51.222;5.678;2023-07-13T13:05:01;9.65;;;1.20;;
28772;SDS011;15925;51.222;5.678;2023-07-13T13:07:29;2.10;;;0.85;;
28772;SDS011;15925;51.222;5.678;2023-07-13T13:09:55;3.73;;;0.83;;
28772;SDS011;15925;51.222;5.678;2023-07-13T13:12:21;4.03;;;0.50;;
28772;SDS011;15925;51.222;5.678;2023-07-13T13:14:50;2.75;;;1.05;;
28772;SDS011;15925;51.222;5.678;2023-07-13T13:17:28;6.88;;;1.15;;
28772;SDS011;15925;51.222;5.678;2023-07-13T13:19:56;0.80;;;0.70;;
28772;SDS011;15925;51.222;5.678;2023-07-13T13:22:22;5.57;;;0.85;;
28772;SDS011;15925;51.222;5.678;2023-07-13T13:24:48;3.15;;;1.13;;
28772;SDS011;15925;51.222;5.678;2023-07-13T13:27:15;3.22;;;1.13;;
28772;SDS011;15925;51.222;5.678;2023-07-13T13:29:45;3.22;;;0.82;;
28772;SDS011;15925;51.222;5.678;2023-07-13T13:32:13;3.20;;;0.70;;
28772;SDS011;15925;51.222;5.678;2023-07-13T13:34:40;1.95;;;0.60;;
28772;SDS011;15925;51.222;5.678;2023-07-13T13:37:20;1.83;;;0.88;;
28772;SDS011;15925;51.222;5.678;2023-07-13T13:39:48;8.40;;;1.15;;
28772;SDS011;15925;51.222;5.678;2023-07-13T13:42:14;3.72;;;1.10;;
28772;SDS011;15925;51.222;5.678;2023-07-13T13:44:40;17.55;;;1.95;;
28772;SDS011;15925;51.222;5.678;2023-07-13T13:47:07;2.33;;;0.80;;
28772;SDS011;15925;51.222;5.678;2023-07-13T13:50:01;4.32;;;1.40;;
28772;SDS011;15925;51.222;5.678;2023-07-13T13:52:37;4.38;;;1.00;;
28772;SDS011;15925;51.222;5.678;2023-07-13T13:55:10;1.20;;;0.83;;
28772;SDS011;15925;51.222;5.678;2023-07-13T13:57:40;6.93;;;1.50;;
28772;SDS011;15925;51.222;5.678;2023-07-13T14:00:08;3.47;;;1.40;;
28772;SDS011;15925;51.222;5.678;2023-07-13T14:02:39;3.10;;;0.65;;
28772;SDS011;15925;51.222;5.678;2023-07-13T14:05:06;1.83;;;0.85;;
28772;SDS011;15925;51.222;5.678;2023-07-13T14:07:36;1.77;;;0.90;;
28772;SDS011;15925;51.222;5.678;2023-07-13T14:10:08;3.23;;;0.97;;
28772;SDS011;15925;51.222;5.678;2023-07-13T14:12:40;5.38;;;1.40;;
28772;SDS011;15925;51.222;5.678;2023-07-13T14:15:26;3.63;;;1.63;;
28772;SDS011;15925;51.222;5.678;2023-07-13T14:17:53;2.58;;;1.08;;
28772;SDS011;15925;51.222;5.678;2023-07-13T14:20:20;1.48;;;0.60;;
28772;SDS011;15925;51.222;5.678;2023-07-13T14:22:49;3.75;;;0.93;;
28772;SDS011;15925;51.222;5.678;2023-07-13T14:27:42;1.83;;;0.73;;
28772;SDS011;15925;51.222;5.678;2023-07-13T14:30:13;4.00;;;1.70;;
28772;SDS011;15925;51.222;5.678;2023-07-13T14:32:44;5.25;;;1.05;;
28772;SDS011;15925;51.222;5.678;2023-07-13T14:35:11;1.20;;;0.63;;
28772;SDS011;15925;51.222;5.678;2023-07-13T14:37:38;2.15;;;0.85;;
28772;SDS011;15925;51.222;5.678;2023-07-13T14:40:12;1.67;;;0.63;;
28772;SDS011;15925;51.222;5.678;2023-07-13T14:42:50;2.67;;;0.80;;
28772;SDS011;15925;51.222;5.678;2023-07-13T14:45:17;6.60;;;0.80;;
28772;SDS011;15925;51.222;5.678;2023-07-13T14:47:44;1.63;;;0.70;;
28772;SDS011;15925;51.222;5.678;2023-07-13T14:50:14;1.10;;;0.70;;
28772;SDS011;15925;51.222;5.678;2023-07-13T14:52:41;5.80;;;0.93;;
28772;SDS011;15925;51.222;5.678;2023-07-13T14:55:12;3.35;;;0.60;;
28772;SDS011;15925;51.222;5.678;2023-07-13T14:57:39;1.45;;;0.75;;
28772;SDS011;15925;51.222;5.678;2023-07-13T15:00:14;4.23;;;0.77;;
28772;SDS011;15925;51.222;5.678;2023-07-13T15:02:50;0.80;;;0.60;;
28772;SDS011;15925;51.222;5.678;2023-07-13T15:05:19;2.30;;;0.60;;
28772;SDS011;15925;51.222;5.678;2023-07-13T15:07:48;5.15;;;0.77;;
28772;SDS011;15925;51.222;5.678;2023-07-13T15:10:15;3.60;;;0.88;;
28772;SDS011;15925;51.222;5.678;2023-07-13T15:12:44;0.75;;;0.40;;
28772;SDS011;15925;51.222;5.678;2023-07-13T15:15:10;1.52;;;0.68;;
28772;SDS011;15925;51.222;5.678;2023-07-13T15:17:40;1.85;;;0.52;;
28772;SDS011;15925;51.222;5.678;2023-07-13T15:20:18;1.55;;;0.50;;
28772;SDS011;15925;51.222;5.678;2023-07-13T15:22:50;0.47;;;0.40;;
28772;SDS011;15925;51.222;5.678;2023-07-13T15:25:21;0.30;;;0.30;;
28772;SDS011;15925;51.222;5.678;2023-07-13T15:27:49;2.40;;;0.70;;
28772;SDS011;15925;51.222;5.678;2023-07-13T15:32:42;2.15;;;0.57;;
28772;SDS011;15925;51.222;5.678;2023-07-13T15:35:19;1.55;;;0.60;;
28772;SDS011;15925;51.222;5.678;2023-07-13T15:37:47;6.00;;;0.90;;
28772;SDS011;15925;51.222;5.678;2023-07-13T15:40:14;2.30;;;0.90;;
28772;SDS011;15925;51.222;5.678;2023-07-13T15:42:41;1.23;;;0.50;;
28772;SDS011;15925;51.222;5.678;2023-07-13T15:45:14;4.70;;;0.93;;
28772;SDS011;15925;51.222;5.678;2023-07-13T15:47:40;1.30;;;0.77;;
28772;SDS011;15925;51.222;5.678;2023-07-13T15:50:11;1.77;;;0.85;;
28772;SDS011;15925;51.222;5.678;2023-07-13T15:52:45;0.77;;;0.50;;
28772;SDS011;15925;51.222;5.678;2023-07-13T15:55:14;2.47;;;0.95;;
28772;SDS011;15925;51.222;5.678;2023-07-13T16:00:16;10.30;;;0.82;;
28772;SDS011;15925;51.222;5.678;2023-07-13T16:02:48;1.17;;;0.60;;
28772;SDS011;15925;51.222;5.678;2023-07-13T16:07:45;3.03;;;0.50;;
28772;SDS011;15925;51.222;5.678;2023-07-13T16:10:13;1.05;;;0.63;;